sensor_id;sensor_type;location;lat;lon;timestamp;P1;durP1;ratioP1;P2;durP2;ratioP2
3274;SDS011;1649;53.672;10.064;2023-10-13T00:01:07;13.57;;;4.60;;
3274;SDS011;1649;53.672;10.064;2023-10-13T00:03:33;13.00;;;4.13;;
3274;SDS011;1649;53.672;10.064;2023-10-13T00:05:58;8.33;;;3.70;;
3274;SDS011;1649;53.672;10.064;2023-10-13T00:08:28;8.17;;;3.77;;
3274;SDS011;1649;53.672;10.064;2023-10-13T00:10:56;10.17;;;4.03;;
3274;SDS011;1649;53.672;10.064;2023-10-13T00:13:25;11.67;;;4.17;;
3274;SDS011;1649;53.672;10.064;2023-10-13T00:15:52;10.40;;;4.17;;
3274;SDS011;1649;53.672;10.064;2023-10-13T00:20:52;8.47;;;4.00;;
3274;SDS011;1649;53.672;10.064;2023-10-13T00:23:21;8.77;;;3.20;;
3274;SDS011;1649;53.672;10.064;2023-10-13T00:25:51;10.93;;;4.10;;
3274;SDS011;1649;53.672;10.064;2023-10-13T00:28:22;10.43;;;4.37;;
3274;SDS011;1649;53.672;10.064;2023-10-13T00:30:52;8.40;;;3.60;;
3274;SDS011;1649;53.672;10.064;2023-10-13T00:33:25;8.57;;;4.03;;
3274;SDS011;1649;53.672;10.064;2023-10-13T00:35:52;13.47;;;4.10;;
3274;SDS011;1649;53.672;10.064;2023-10-13T00:38:17;11.10;;;4.50;;
3274;SDS011;1649;53.672;10.064;2023-10-13T00:40:43;11.50;;;4.37;;
3274;SDS011;1649;53.672;10.064;2023-10-13T00:43:16;15.63;;;4.90;;
3274;SDS011;1649;53.672;10.064;2023-10-13T00:45:46;12.13;;;4.53;;
3274;SDS011;1649;53.672;10.064;2023-10-13T00:48:28;10.63;;;5.03;;
3274;SDS011;1649;53.672;10.064;2023-10-13T00:51:07;16.93;;;4.97;;
3274;SDS011;1649;53.672;10.064;2023-10-13T00:53:33;11.23;;;5.00;;
3274;SDS011;1649;53.672;10.064;2023-10-13T00:56:02;10.90;;;5.10;;
3274;SDS011;1649;53.672;10.064;2023-10-13T00:58:33;12.47;;;4.80;;
3274;SDS011;1649;53.672;10.064;2023-10-13T01:00:59;10.53;;;5.73;;
3274;SDS011;1649;53.672;10.064;2023-10-13T01:03:43;11.33;;;5.17;;
3274;SDS011;1649;53.672;10.064;2023-10-13T01:06:24;12.70;;;5.00;;
3274;SDS011;1649;53.672;10.064;2023-10-13T01:08:56;10.90;;;5.13;;
3274;SDS011;1649;53.672;10.064;2023-10-13T01:11:24;15.80;;;5.80;;
3274;SDS011;1649;53.672;10.064;2023-10-13T01:13:52;17.87;;;5.63;;
3274;SDS011;1649;53.672;10.064;2023-10-13T01:16:19;18.50;;;6.27;;
3274;SDS011;1649;53.672;10.064;2023-10-13T01:18:48;15.90;;;5.87;;
3274;SDS011;1649;53.672;10.064;2023-10-13T01:21:17;11.10;;;5.90;;
3274;SDS011;1649;53.672;10.064;2023-10-13T01:23:46;14.70;;;6.07;;
3274;SDS011;1649;53.672;10.064;2023-10-13T01:26:13;26.73;;;7.20;;
3274;SDS011;1649;53.672;10.064;2023-10-13T01:28:46;20.50;;;7.53;;
3274;SDS011;1649;53.672;10.064;2023-10-13T01:31:12;21.60;;;7.83;;
3274;SDS011;1649;53.672;10.064;2023-10-13T01:33:47;16.80;;;6.80;;
3274;SDS011;1649;53.672;10.064;2023-10-13T01:36:16;18.40;;;7.97;;
3274;SDS011;1649;53.672;10.064;2023-10-13T01:38:43;21.00;;;7.67;;
3274;SDS011;1649;53.672;10.064;2023-10-13T01:41:08;18.27;;;7.73;;
3274;SDS011;1649;53.672;10.064;2023-10-13T01:43:34;18.17;;;6.83;;
3274;SDS011;1649;53.672;10.064;2023-10-13T01:45:59;26.13;;;8.87;;
3274;SDS011;1649;53.672;10.064;2023-10-13T01:48:25;29.10;;;8.10;;
3274;SDS011;1649;53.672;10.064;2023-10-13T01:50:50;20.60;;;8.30;;
3274;SDS011;1649;53.672;10.064;2023-10-13T01:53:24;25.77;;;9.30;;
3274;SDS011;1649;53.672;10.064;2023-10-13T01:55:53;22.77;;;8.60;;
3274;SDS011;1649;53.672;10.064;2023-10-13T01:58:22;23.63;;;8.80;;
3274;SDS011;1649;53.672;10.064;2023-10-13T02:00:47;24.83;;;9.47;;
3274;SDS011;1649;53.672;10.064;2023-10-13T02:03:14;25.67;;;9.17;;
3274;SDS011;1649;53.672;10.064;2023-10-13T02:05:41;24.03;;;9.23;;
3274;SDS011;1649;53.672;10.064;2023-10-13T02:08:16;26.47;;;10.50;;
3274;SDS011;1649;53.672;10.064;2023-10-13T02:10:47;26.90;;;11.50;;
3274;SDS011;1649;53.672;10.064;2023-10-13T02:13:14;28.70;;;10.47;;
3274;SDS011;1649;53.672;10.064;2023-10-13T02:15:41;32.90;;;11.40;;
3274;SDS011;1649;53.672;10.064;2023-10-13T02:18:08;35.00;;;11.20;;
3274;SDS011;1649;53.672;10.064;2023-10-13T02:20:35;38.03;;;11.70;;
3274;SDS011;1649;53.672;10.064;2023-10-13T02:23:07;32.23;;;11.27;;
3274;SDS011;1649;53.672;10.064;2023-10-13T02:25:35;32.80;;;12.70;;
3274;SDS011;1649;53.672;10.064;2023-10-13T02:28:07;37.00;;;12.63;;
3274;SDS011;1649;53.672;10.064;2023-10-13T02:30:46;28.63;;;11.20;;
3274;SDS011;1649;53.672;10.064;2023-10-13T02:33:15;30.73;;;11.47;;
3274;SDS011;1649;53.672;10.064;2023-10-13T02:35:54;32.63;;;12.30;;
3274;SDS011;1649;53.672;10.064;2023-10-13T02:38:23;36.73;;;11.93;;
3274;SDS011;1649;53.672;10.064;2023-10-13T02:41:11;34.03;;;12.13;;
3274;SDS011;1649;53.672;10.064;2023-10-13T02:43:37;30.87;;;12.43;;
3274;SDS011;1649;53.672;10.064;2023-10-13T02:46:03;31.40;;;11.97;;
3274;SDS011;1649;53.672;10.064;2023-10-13T02:48:29;33.33;;;12.60;;
3274;SDS011;1649;53.672;10.064;2023-10-13T02:51:04;33.47;;;13.73;;
3274;SDS011;1649;53.672;10.064;2023-10-13T02:53:39;30.40;;;12.50;;
3274;SDS011;1649;53.672;10.064;2023-10-13T02:56:05;41.87;;;14.77;;
3274;SDS011;1649;53.672;10.064;2023-10-13T02:58:31;33.30;;;13.27;;
3274;SDS011;1649;53.672;10.064;2023-10-13T03:01:09;36.27;;;12.40;;
3274;SDS011;1649;53.672;10.064;2023-10-13T03:03:44;30.30;;;12.70;;
3274;SDS011;1649;53.672;10.064;2023-10-13T03:06:13;42.63;;;14.63;;
3274;SDS011;1649;53.672;10.064;2023-10-13T03:08:39;39.33;;;14.03;;
3274;SDS011;1649;53.672;10.064;2023-10-13T03:11:05;47.13;;;14.80;;
3274;SDS011;1649;53.672;10.064;2023-10-13T03:13:30;35.33;;;13.17;;
3274;SDS011;1649;53.672;10.064;2023-10-13T03:15:58;37.73;;;14.00;;
3274;SDS011;1649;53.672;10.064;2023-10-13T03:18:24;36.90;;;13.50;;
3274;SDS011;1649;53.672;10.064;2023-10-13T03:20:50;32.40;;;13.13;;
3274;SDS011;1649;53.672;10.064;2023-10-13T03:23:21;38.70;;;13.20;;
3274;SDS011;1649;53.672;10.064;2023-10-13T03:25:46;38.77;;;13.97;;
3274;SDS011;1649;53.672;10.064;2023-10-13T03:28:15;38.97;;;15.00;;
3274;SDS011;1649;53.672;10.064;2023-10-13T03:30:43;38.53;;;13.50;;
3274;SDS011;1649;53.672;10.064;2023-10-13T03:33:09;43.40;;;12.73;;
3274;SDS011;1649;53.672;10.064;2023-10-13T03:35:37;44.30;;;16.10;;
3274;SDS011;1649;53.672;10.064;2023-10-13T03:38:03;32.30;;;13.20;;
3274;SDS011;1649;53.672;10.064;2023-10-13T03:40:29;34.40;;;13.47;;
3274;SDS011;1649;53.672;10.064;2023-10-13T03:42:55;35.00;;;13.00;;
3274;SDS011;1649;53.672;10.064;2023-10-13T03:45:37;31.33;;;11.57;;
3274;SDS011;1649;53.672;10.064;2023-10-13T03:48:13;23.77;;;10.60;;
3274;SDS011;1649;53.672;10.064;2023-10-13T03:51:01;28.00;;;11.30;;
3274;SDS011;1649;53.672;10.064;2023-10-13T03:53:36;34.63;;;11.83;;
3274;SDS011;1649;53.672;10.064;2023-10-13T03:56:17;23.27;;;10.30;;
3274;SDS011;1649;53.672;10.064;2023-10-13T03:58:53;28.40;;;10.30;;
3274;SDS011;1649;53.672;10.064;2023-10-13T04:01:30;23.07;;;10.60;;
3274;SDS011;1649;53.672;10.064;2023-10-13T04:04:08;21.90;;;9.50;;
3274;SDS011;1649;53.672;10.064;2023-10-13T04:06:35;21.47;;;10.63;;
3274;SDS011;1649;53.672;10.064;2023-10-13T04:09:22;20.40;;;9.10;;
3274;SDS011;1649;53.672;10.064;2023-10-13T04:11:57;21.77;;;9.93;;
3274;SDS011;1649;53.672;10.064;2023-10-13T04:14:29;16.87;;;9.47;;
3274;SDS011;1649;53.672;10.064;2023-10-13T04:17:13;24.70;;;9.53;;
3274;SDS011;1649;53.672;10.064;2023-10-13T04:19:39;20.70;;;10.23;;
3274;SDS011;1649;53.672;10.064;2023-10-13T04:22:24;19.23;;;9.33;;
3274;SDS011;1649;53.672;10.064;2023-10-13T04:25:11;20.50;;;9.70;;
3274;SDS011;1649;53.672;10.064;2023-10-13T04:28:03;21.07;;;9.70;;
3274;SDS011;1649;53.672;10.064;2023-10-13T04:33:20;20.87;;;9.00;;
3274;SDS011;1649;53.672;10.064;2023-10-13T04:38:39;28.50;;;11.63;;
3274;SDS011;1649;53.672;10.064;2023-10-13T04:41:27;25.77;;;12.37;;
3274;SDS011;1649;53.672;10.064;2023-10-13T04:44:01;25.87;;;12.40;;
3274;SDS011;1649;53.672;10.064;2023-10-13T04:46:30;32.90;;;14.77;;
3274;SDS011;1649;53.672;10.064;2023-10-13T04:49:22;32.97;;;12.80;;
3274;SDS011;1649;53.672;10.064;2023-10-13T04:52:04;28.70;;;12.90;;
3274;SDS011;1649;53.672;10.064;2023-10-13T04:54:33;31.20;;;14.60;;
3274;SDS011;1649;53.672;10.064;2023-10-13T04:57:20;28.73;;;13.33;;
3274;SDS011;1649;53.672;10.064;2023-10-13T05:00:19;39.70;;;14.27;;
3274;SDS011;1649;53.672;10.064;2023-10-13T05:02:45;33.47;;;14.90;;
3274;SDS011;1649;53.672;10.064;2023-10-13T05:05:30;35.63;;;15.80;;
3274;SDS011;1649;53.672;10.064;2023-10-13T05:07:55;36.43;;;16.27;;
3274;SDS011;1649;53.672;10.064;2023-10-13T05:10:39;39.17;;;16.70;;
3274;SDS011;1649;53.672;10.064;2023-10-13T05:13:23;44.50;;;16.90;;
3274;SDS011;1649;53.672;10.064;2023-10-13T05:16:08;35.93;;;17.77;;
3274;SDS011;1649;53.672;10.064;2023-10-13T05:18:52;42.70;;;17.17;;
3274;SDS011;1649;53.672;10.064;2023-10-13T05:21:36;44.43;;;19.13;;
3274;SDS011;1649;53.672;10.064;2023-10-13T05:24:20;38.07;;;18.20;;
3274;SDS011;1649;53.672;10.064;2023-10-13T05:27:04;44.70;;;19.50;;
3274;SDS011;1649;53.672;10.064;2023-10-13T05:29:48;43.10;;;16.60;;
3274;SDS011;1649;53.672;10.064;2023-10-13T05:32:40;46.20;;;19.40;;
3274;SDS011;1649;53.672;10.064;2023-10-13T05:35:24;45.57;;;19.60;;
3274;SDS011;1649;53.672;10.064;2023-10-13T05:38:08;45.13;;;18.70;;
3274;SDS011;1649;53.672;10.064;2023-10-13T05:43:36;47.03;;;20.17;;
3274;SDS011;1649;53.672;10.064;2023-10-13T05:46:20;56.70;;;20.60;;
3274;SDS011;1649;53.672;10.064;2023-10-13T05:49:06;43.60;;;20.40;;
3274;SDS011;1649;53.672;10.064;2023-10-13T05:51:36;46.63;;;19.33;;
3274;SDS011;1649;53.672;10.064;2023-10-13T05:54:04;55.47;;;22.07;;
3274;SDS011;1649;53.672;10.064;2023-10-13T05:56:48;46.00;;;19.33;;
3274;SDS011;1649;53.672;10.064;2023-10-13T05:59:34;48.90;;;21.13;;
3274;SDS011;1649;53.672;10.064;2023-10-13T06:02:22;46.00;;;21.23;;
3274;SDS011;1649;53.672;10.064;2023-10-13T06:05:07;47.43;;;20.17;;
3274;SDS011;1649;53.672;10.064;2023-10-13T06:07:52;50.77;;;21.63;;
3274;SDS011;1649;53.672;10.064;2023-10-13T06:10:38;51.53;;;22.70;;
3274;SDS011;1649;53.672;10.064;2023-10-13T06:13:22;51.13;;;21.70;;
3274;SDS011;1649;53.672;10.064;2023-10-13T06:18:51;52.10;;;23.00;;
3274;SDS011;1649;53.672;10.064;2023-10-13T06:21:35;54.90;;;22.20;;
3274;SDS011;1649;53.672;10.064;2023-10-13T06:24:27;57.87;;;22.50;;
3274;SDS011;1649;53.672;10.064;2023-10-13T06:27:11;56.40;;;23.30;;
3274;SDS011;1649;53.672;10.064;2023-10-13T06:29:55;50.67;;;22.07;;
3274;SDS011;1649;53.672;10.064;2023-10-13T06:32:21;58.47;;;23.60;;
3274;SDS011;1649;53.672;10.064;2023-10-13T06:34:53;56.33;;;23.63;;
3274;SDS011;1649;53.672;10.064;2023-10-13T06:37:25;63.27;;;25.13;;
3274;SDS011;1649;53.672;10.064;2023-10-13T06:40:03;59.33;;;25.30;;
3274;SDS011;1649;53.672;10.064;2023-10-13T06:42:50;60.63;;;26.03;;
3274;SDS011;1649;53.672;10.064;2023-10-13T06:45:36;62.37;;;24.67;;
3274;SDS011;1649;53.672;10.064;2023-10-13T06:48:02;57.17;;;25.73;;
3274;SDS011;1649;53.672;10.064;2023-10-13T06:50:29;60.50;;;26.93;;
3274;SDS011;1649;53.672;10.064;2023-10-13T06:53:03;51.60;;;24.77;;
3274;SDS011;1649;53.672;10.064;2023-10-13T06:55:28;57.07;;;24.50;;
3274;SDS011;1649;53.672;10.064;2023-10-13T06:58:00;64.23;;;26.80;;
3274;SDS011;1649;53.672;10.064;2023-10-13T07:00:26;59.40;;;24.97;;
3274;SDS011;1649;53.672;10.064;2023-10-13T07:02:59;57.67;;;24.90;;
3274;SDS011;1649;53.672;10.064;2023-10-13T07:05:34;53.17;;;24.23;;
3274;SDS011;1649;53.672;10.064;2023-10-13T07:08:03;55.90;;;25.00;;
3274;SDS011;1649;53.672;10.064;2023-10-13T07:10:29;55.07;;;23.70;;
3274;SDS011;1649;53.672;10.064;2023-10-13T07:12:55;57.17;;;26.07;;
3274;SDS011;1649;53.672;10.064;2023-10-13T07:15:25;55.97;;;25.80;;
3274;SDS011;1649;53.672;10.064;2023-10-13T07:17:54;61.77;;;26.10;;
3274;SDS011;1649;53.672;10.064;2023-10-13T07:20:21;60.03;;;26.10;;
3274;SDS011;1649;53.672;10.064;2023-10-13T07:22:50;56.50;;;25.90;;
3274;SDS011;1649;53.672;10.064;2023-10-13T07:25:32;55.00;;;25.80;;
3274;SDS011;1649;53.672;10.064;2023-10-13T07:28:04;72.17;;;25.60;;
3274;SDS011;1649;53.672;10.064;2023-10-13T07:30:33;56.53;;;25.20;;
3274;SDS011;1649;53.672;10.064;2023-10-13T07:33:15;51.60;;;23.80;;
3274;SDS011;1649;53.672;10.064;2023-10-13T07:35:44;45.67;;;22.30;;
3274;SDS011;1649;53.672;10.064;2023-10-13T07:38:37;56.90;;;27.00;;
3274;SDS011;1649;53.672;10.064;2023-10-13T07:41:03;58.60;;;25.53;;
3274;SDS011;1649;53.672;10.064;2023-10-13T07:43:33;63.10;;;26.53;;
3274;SDS011;1649;53.672;10.064;2023-10-13T07:45:59;57.50;;;26.13;;
3274;SDS011;1649;53.672;10.064;2023-10-13T07:48:31;62.37;;;26.47;;
3274;SDS011;1649;53.672;10.064;2023-10-13T07:50:59;49.47;;;23.27;;
3274;SDS011;1649;53.672;10.064;2023-10-13T07:53:36;46.40;;;23.67;;
3274;SDS011;1649;53.672;10.064;2023-10-13T07:56:05;57.00;;;25.80;;
3274;SDS011;1649;53.672;10.064;2023-10-13T07:58:36;58.17;;;25.50;;
3274;SDS011;1649;53.672;10.064;2023-10-13T08:01:12;43.97;;;22.27;;
3274;SDS011;1649;53.672;10.064;2023-10-13T08:03:42;45.13;;;23.00;;
3274;SDS011;1649;53.672;10.064;2023-10-13T08:06:14;45.20;;;23.10;;
3274;SDS011;1649;53.672;10.064;2023-10-13T08:08:41;43.37;;;23.60;;
3274;SDS011;1649;53.672;10.064;2023-10-13T08:11:10;45.00;;;21.10;;
3274;SDS011;1649;53.672;10.064;2023-10-13T08:13:37;42.03;;;21.57;;
3274;SDS011;1649;53.672;10.064;2023-10-13T08:16:05;37.77;;;19.17;;
3274;SDS011;1649;53.672;10.064;2023-10-13T08:18:34;35.70;;;19.30;;
3274;SDS011;1649;53.672;10.064;2023-10-13T08:21:01;37.40;;;18.67;;
3274;SDS011;1649;53.672;10.064;2023-10-13T08:23:28;43.27;;;22.40;;
3274;SDS011;1649;53.672;10.064;2023-10-13T08:26:13;29.03;;;15.10;;
3274;SDS011;1649;53.672;10.064;2023-10-13T08:28:54;32.33;;;16.83;;
3274;SDS011;1649;53.672;10.064;2023-10-13T08:31:49;34.83;;;17.57;;
3274;SDS011;1649;53.672;10.064;2023-10-13T08:34:35;30.60;;;17.07;;
3274;SDS011;1649;53.672;10.064;2023-10-13T08:37:24;33.50;;;16.33;;
3274;SDS011;1649;53.672;10.064;2023-10-13T08:40:11;29.80;;;14.43;;
3274;SDS011;1649;53.672;10.064;2023-10-13T08:42:43;26.93;;;15.43;;
3274;SDS011;1649;53.672;10.064;2023-10-13T08:45:10;30.30;;;16.70;;
3274;SDS011;1649;53.672;10.064;2023-10-13T08:47:52;24.60;;;14.50;;
3274;SDS011;1649;53.672;10.064;2023-10-13T08:50:33;28.40;;;14.93;;
3274;SDS011;1649;53.672;10.064;2023-10-13T08:53:15;24.20;;;14.13;;
3274;SDS011;1649;53.672;10.064;2023-10-13T08:56:04;24.93;;;14.33;;
3274;SDS011;1649;53.672;10.064;2023-10-13T08:58:40;21.40;;;10.87;;
3274;SDS011;1649;53.672;10.064;2023-10-13T09:04:05;21.43;;;11.63;;
3274;SDS011;1649;53.672;10.064;2023-10-13T09:06:43;20.30;;;11.17;;
3274;SDS011;1649;53.672;10.064;2023-10-13T09:09:28;21.13;;;11.30;;
3274;SDS011;1649;53.672;10.064;2023-10-13T09:14:39;20.27;;;11.60;;
3274;SDS011;1649;53.672;10.064;2023-10-13T09:17:10;17.53;;;10.10;;
3274;SDS011;1649;53.672;10.064;2023-10-13T09:19:47;18.50;;;11.43;;
3274;SDS011;1649;53.672;10.064;2023-10-13T09:22:20;22.30;;;11.30;;
3274;SDS011;1649;53.672;10.064;2023-10-13T09:24:53;19.13;;;11.30;;
3274;SDS011;1649;53.672;10.064;2023-10-13T09:27:23;20.13;;;10.50;;
3274;SDS011;1649;53.672;10.064;2023-10-13T09:29:55;18.57;;;10.83;;
3274;SDS011;1649;53.672;10.064;2023-10-13T09:32:43;12.80;;;8.30;;
3274;SDS011;1649;53.672;10.064;2023-10-13T09:35:17;19.57;;;10.50;;
3274;SDS011;1649;53.672;10.064;2023-10-13T09:37:47;17.10;;;10.20;;
3274;SDS011;1649;53.672;10.064;2023-10-13T09:40:15;16.90;;;10.80;;
3274;SDS011;1649;53.672;10.064;2023-10-13T09:42:52;18.27;;;9.80;;
3274;SDS011;1649;53.672;10.064;2023-10-13T09:45:23;16.00;;;10.03;;
3274;SDS011;1649;53.672;10.064;2023-10-13T09:48:11;17.40;;;11.30;;
3274;SDS011;1649;53.672;10.064;2023-10-13T09:50:46;17.07;;;9.80;;
3274;SDS011;1649;53.672;10.064;2023-10-13T09:53:13;17.47;;;9.67;;
3274;SDS011;1649;53.672;10.064;2023-10-13T09:55:47;18.20;;;9.60;;
3274;SDS011;1649;53.672;10.064;2023-10-13T09:58:14;15.17;;;10.00;;
3274;SDS011;1649;53.672;10.064;2023-10-13T10:00:43;18.63;;;9.83;;
3274;SDS011;1649;53.672;10.064;2023-10-13T10:03:21;16.63;;;9.80;;
3274;SDS011;1649;53.672;10.064;2023-10-13T10:06:04;15.50;;;9.93;;
3274;SDS011;1649;53.672;10.064;2023-10-13T10:08:39;16.87;;;9.30;;
3274;SDS011;1649;53.672;10.064;2023-10-13T10:13:47;17.37;;;10.73;;
3274;SDS011;1649;53.672;10.064;2023-10-13T10:19:14;17.77;;;9.23;;
3274;SDS011;1649;53.672;10.064;2023-10-13T10:21:39;14.93;;;8.53;;
3274;SDS011;1649;53.672;10.064;2023-10-13T10:24:20;16.93;;;9.40;;
3274;SDS011;1649;53.672;10.064;2023-10-13T10:26:54;14.37;;;8.10;;
3274;SDS011;1649;53.672;10.064;2023-10-13T10:29:20;14.97;;;9.00;;
3274;SDS011;1649;53.672;10.064;2023-10-13T10:31:46;14.20;;;8.83;;
3274;SDS011;1649;53.672;10.064;2023-10-13T10:34:15;18.80;;;8.27;;
3274;SDS011;1649;53.672;10.064;2023-10-13T10:36:47;17.93;;;9.23;;
3274;SDS011;1649;53.672;10.064;2023-10-13T10:39:18;16.57;;;8.23;;
3274;SDS011;1649;53.672;10.064;2023-10-13T10:41:43;18.57;;;9.20;;
3274;SDS011;1649;53.672;10.064;2023-10-13T10:44:17;17.90;;;8.60;;
3274;SDS011;1649;53.672;10.064;2023-10-13T10:47:20;15.87;;;8.23;;
3274;SDS011;1649;53.672;10.064;2023-10-13T10:49:55;16.80;;;8.20;;
3274;SDS011;1649;53.672;10.064;2023-10-13T10:52:22;17.47;;;8.10;;
3274;SDS011;1649;53.672;10.064;2023-10-13T10:55:00;12.87;;;8.77;;
3274;SDS011;1649;53.672;10.064;2023-10-13T10:57:26;13.37;;;7.37;;
3274;SDS011;1649;53.672;10.064;2023-10-13T10:59:54;18.90;;;9.03;;
3274;SDS011;1649;53.672;10.064;2023-10-13T11:02:40;17.00;;;9.13;;
3274;SDS011;1649;53.672;10.064;2023-10-13T11:05:06;17.30;;;8.37;;
3274;SDS011;1649;53.672;10.064;2023-10-13T11:07:34;19.03;;;7.93;;
3274;SDS011;1649;53.672;10.064;2023-10-13T11:10:10;11.97;;;7.67;;
3274;SDS011;1649;53.672;10.064;2023-10-13T11:12:58;14.83;;;7.90;;
3274;SDS011;1649;53.672;10.064;2023-10-13T11:15:43;14.43;;;7.93;;
3274;SDS011;1649;53.672;10.064;2023-10-13T11:18:10;14.17;;;8.57;;
3274;SDS011;1649;53.672;10.064;2023-10-13T11:20:42;15.73;;;8.40;;
3274;SDS011;1649;53.672;10.064;2023-10-13T11:23:11;12.93;;;7.40;;
3274;SDS011;1649;53.672;10.064;2023-10-13T11:25:37;15.70;;;9.93;;
3274;SDS011;1649;53.672;10.064;2023-10-13T11:28:10;16.57;;;8.77;;
3274;SDS011;1649;53.672;10.064;2023-10-13T11:30:56;14.50;;;6.50;;
3274;SDS011;1649;53.672;10.064;2023-10-13T11:33:35;14.83;;;8.50;;
3274;SDS011;1649;53.672;10.064;2023-10-13T11:36:11;18.13;;;8.77;;
3274;SDS011;1649;53.672;10.064;2023-10-13T11:38:42;16.30;;;9.33;;
3274;SDS011;1649;53.672;10.064;2023-10-13T11:41:14;17.63;;;8.63;;
3274;SDS011;1649;53.672;10.064;2023-10-13T11:46:17;12.90;;;8.47;;
3274;SDS011;1649;53.672;10.064;2023-10-13T11:49:02;16.60;;;7.80;;
3274;SDS011;1649;53.672;10.064;2023-10-13T11:51:38;15.57;;;8.83;;
3274;SDS011;1649;53.672;10.064;2023-10-13T11:54:20;12.80;;;8.00;;
3274;SDS011;1649;53.672;10.064;2023-10-13T11:56:48;15.57;;;8.50;;
3274;SDS011;1649;53.672;10.064;2023-10-13T11:59:14;13.70;;;7.83;;
3274;SDS011;1649;53.672;10.064;2023-10-13T12:01:46;12.23;;;7.70;;
3274;SDS011;1649;53.672;10.064;2023-10-13T12:04:34;12.10;;;7.13;;
3274;SDS011;1649;53.672;10.064;2023-10-13T12:07:16;14.40;;;6.37;;
3274;SDS011;1649;53.672;10.064;2023-10-13T12:09:44;14.17;;;7.23;;
3274;SDS011;1649;53.672;10.064;2023-10-13T12:12:20;13.47;;;7.50;;
3274;SDS011;1649;53.672;10.064;2023-10-13T12:14:46;15.30;;;7.50;;
3274;SDS011;1649;53.672;10.064;2023-10-13T12:17:20;14.03;;;7.90;;
3274;SDS011;1649;53.672;10.064;2023-10-13T12:20:05;11.63;;;7.60;;
3274;SDS011;1649;53.672;10.064;2023-10-13T12:22:34;11.60;;;6.03;;
3274;SDS011;1649;53.672;10.064;2023-10-13T12:25:01;15.40;;;6.97;;
3274;SDS011;1649;53.672;10.064;2023-10-13T12:27:30;10.33;;;6.20;;
3274;SDS011;1649;53.672;10.064;2023-10-13T12:30:10;14.53;;;6.30;;
3274;SDS011;1649;53.672;10.064;2023-10-13T12:32:38;13.43;;;7.10;;
3274;SDS011;1649;53.672;10.064;2023-10-13T12:35:09;12.07;;;6.47;;
3274;SDS011;1649;53.672;10.064;2023-10-13T12:37:35;11.17;;;6.10;;
3274;SDS011;1649;53.672;10.064;2023-10-13T12:40:01;13.43;;;6.60;;
3274;SDS011;1649;53.672;10.064;2023-10-13T12:43:02;16.57;;;6.07;;
3274;SDS011;1649;53.672;10.064;2023-10-13T12:45:47;11.13;;;5.67;;
3274;SDS011;1649;53.672;10.064;2023-10-13T12:48:33;12.97;;;5.83;;
3274;SDS011;1649;53.672;10.064;2023-10-13T12:51:19;11.37;;;6.30;;
3274;SDS011;1649;53.672;10.064;2023-10-13T12:53:45;11.70;;;5.20;;
3274;SDS011;1649;53.672;10.064;2023-10-13T12:56:13;10.83;;;5.53;;
3274;SDS011;1649;53.672;10.064;2023-10-13T12:58:38;12.17;;;5.60;;
3274;SDS011;1649;53.672;10.064;2023-10-13T13:01:04;9.73;;;5.50;;
3274;SDS011;1649;53.672;10.064;2023-10-13T13:03:31;13.50;;;5.47;;
3274;SDS011;1649;53.672;10.064;2023-10-13T13:05:57;14.53;;;5.83;;
3274;SDS011;1649;53.672;10.064;2023-10-13T13:08:23;11.23;;;5.67;;
3274;SDS011;1649;53.672;10.064;2023-10-13T13:10:49;11.20;;;5.60;;
3274;SDS011;1649;53.672;10.064;2023-10-13T13:13:15;18.27;;;6.47;;
3274;SDS011;1649;53.672;10.064;2023-10-13T13:15:42;11.87;;;5.77;;
3274;SDS011;1649;53.672;10.064;2023-10-13T13:18:07;12.33;;;6.33;;
3274;SDS011;1649;53.672;10.064;2023-10-13T13:20:39;18.73;;;6.73;;
3274;SDS011;1649;53.672;10.064;2023-10-13T13:23:04;13.13;;;6.30;;
3274;SDS011;1649;53.672;10.064;2023-10-13T13:25:30;11.60;;;5.90;;
3274;SDS011;1649;53.672;10.064;2023-10-13T13:27:56;15.40;;;6.43;;
3274;SDS011;1649;53.672;10.064;2023-10-13T13:30:24;13.33;;;6.13;;
3274;SDS011;1649;53.672;10.064;2023-10-13T13:32:57;11.50;;;6.10;;
3274;SDS011;1649;53.672;10.064;2023-10-13T13:35:28;13.50;;;6.30;;
3274;SDS011;1649;53.672;10.064;2023-10-13T13:37:59;16.30;;;6.33;;
3274;SDS011;1649;53.672;10.064;2023-10-13T13:40:34;11.60;;;5.37;;
3274;SDS011;1649;53.672;10.064;2023-10-13T13:43:01;14.33;;;5.83;;
3274;SDS011;1649;53.672;10.064;2023-10-13T13:45:27;14.10;;;6.73;;
3274;SDS011;1649;53.672;10.064;2023-10-13T13:47:53;11.00;;;5.43;;
3274;SDS011;1649;53.672;10.064;2023-10-13T13:50:22;12.13;;;5.73;;
3274;SDS011;1649;53.672;10.064;2023-10-13T13:52:54;18.43;;;6.43;;
3274;SDS011;1649;53.672;10.064;2023-10-13T13:55:23;13.40;;;5.60;;
3274;SDS011;1649;53.672;10.064;2023-10-13T13:57:49;16.37;;;6.60;;
3274;SDS011;1649;53.672;10.064;2023-10-13T14:00:16;11.77;;;6.80;;
3274;SDS011;1649;53.672;10.064;2023-10-13T14:02:45;10.13;;;6.17;;
3274;SDS011;1649;53.672;10.064;2023-10-13T14:05:15;12.07;;;6.30;;
3274;SDS011;1649;53.672;10.064;2023-10-13T14:07:42;15.43;;;6.40;;
3274;SDS011;1649;53.672;10.064;2023-10-13T14:10:10;14.03;;;6.30;;
3274;SDS011;1649;53.672;10.064;2023-10-13T14:12:43;13.17;;;5.47;;
3274;SDS011;1649;53.672;10.064;2023-10-13T14:15:09;19.00;;;6.63;;
3274;SDS011;1649;53.672;10.064;2023-10-13T14:17:49;16.93;;;6.47;;
3274;SDS011;1649;53.672;10.064;2023-10-13T14:20:15;14.70;;;6.80;;
3274;SDS011;1649;53.672;10.064;2023-10-13T14:22:44;16.83;;;6.90;;
3274;SDS011;1649;53.672;10.064;2023-10-13T14:25:13;14.70;;;7.07;;
3274;SDS011;1649;53.672;10.064;2023-10-13T14:27:39;17.02;;;7.15;;
3274;SDS011;1649;53.672;10.064;2023-10-13T14:30:06;15.20;;;7.43;;
3274;SDS011;1649;53.672;10.064;2023-10-13T14:32:32;14.50;;;7.23;;
3274;SDS011;1649;53.672;10.064;2023-10-13T14:34:57;10.77;;;6.00;;
3274;SDS011;1649;53.672;10.064;2023-10-13T14:37:25;12.90;;;6.73;;
3274;SDS011;1649;53.672;10.064;2023-10-13T14:39:55;17.97;;;7.03;;
3274;SDS011;1649;53.672;10.064;2023-10-13T14:42:22;12.97;;;6.40;;
3274;SDS011;1649;53.672;10.064;2023-10-13T14:44:49;16.10;;;7.57;;
3274;SDS011;1649;53.672;10.064;2023-10-13T14:47:20;12.87;;;6.77;;
3274;SDS011;1649;53.672;10.064;2023-10-13T14:49:50;16.07;;;7.20;;
3274;SDS011;1649;53.672;10.064;2023-10-13T14:52:19;16.33;;;7.80;;
3274;SDS011;1649;53.672;10.064;2023-10-13T14:54:45;16.83;;;7.63;;
3274;SDS011;1649;53.672;10.064;2023-10-13T14:57:11;16.30;;;6.90;;
3274;SDS011;1649;53.672;10.064;2023-10-13T14:59:36;11.40;;;6.80;;
3274;SDS011;1649;53.672;10.064;2023-10-13T15:02:04;12.40;;;7.60;;
3274;SDS011;1649;53.672;10.064;2023-10-13T15:04:29;15.67;;;7.20;;
3274;SDS011;1649;53.672;10.064;2023-10-13T15:06:58;13.40;;;7.00;;
3274;SDS011;1649;53.672;10.064;2023-10-13T15:09:26;14.80;;;6.90;;
3274;SDS011;1649;53.672;10.064;2023-10-13T15:11:53;11.23;;;6.73;;
3274;SDS011;1649;53.672;10.064;2023-10-13T15:14:18;18.27;;;7.97;;
3274;SDS011;1649;53.672;10.064;2023-10-13T15:16:46;16.33;;;7.00;;
3274;SDS011;1649;53.672;10.064;2023-10-13T15:19:11;16.57;;;7.27;;
3274;SDS011;1649;53.672;10.064;2023-10-13T15:21:37;17.23;;;6.20;;
3274;SDS011;1649;53.672;10.064;2023-10-13T15:24:05;16.43;;;7.40;;
3274;SDS011;1649;53.672;10.064;2023-10-13T15:26:47;15.20;;;6.30;;
3274;SDS011;1649;53.672;10.064;2023-10-13T15:29:16;16.17;;;7.50;;
3274;SDS011;1649;53.672;10.064;2023-10-13T15:31:43;12.50;;;7.10;;
3274;SDS011;1649;53.672;10.064;2023-10-13T15:34:29;15.63;;;7.87;;
3274;SDS011;1649;53.672;10.064;2023-10-13T15:36:56;19.70;;;7.10;;
3274;SDS011;1649;53.672;10.064;2023-10-13T15:39:22;17.90;;;7.00;;
3274;SDS011;1649;53.672;10.064;2023-10-13T15:41:56;22.70;;;6.97;;
3274;SDS011;1649;53.672;10.064;2023-10-13T15:44:23;14.23;;;6.63;;